Time;durP1;ratioP1;P1;durP2;ratioP2;P2;SDS_P1;SDS_P2;PMS_P1;PMS_P2;Temp;Humidity;BMP_temperature;BMP_pressure;BME280_temperature;BME280_humidity;BME280_pressure;Samples;Min_cycle;Max_cycle;Signal;HPM_P1;HPM_P2
2022/04/22 00:01:42;;;;;;;0.10;0.10;;;10.50;99.90;;;;;;4987687;28;20034;-75
2022/04/22 00:04:08;;;;;;;0.10;0.10;;;10.50;99.90;;;;;;4979936;28;20030;-75
2022/04/22 00:06:33;;;;;;;0.10;0.10;;;10.50;99.90;;;;;;4984970;28;20169;-75
2022/04/22 00:08:59;;;;;;;0.10;0.10;;;10.30;99.90;;;;;;4983343;28;20569;-75
2022/04/22 00:11:31;;;;;;;0.10;0.10;;;10.30;99.90;;;;;;4998415;28;20033;-74
2022/04/22 00:14:02;;;;;;;0.10;0.10;;;10.20;99.90;;;;;;4990428;28;20026;-75
2022/04/22 00:16:32;;;;;;;0.10;0.10;;;10.10;99.90;;;;;;4974954;28;20027;-75
2022/04/22 00:18:59;;;;;;;0.10;0.10;;;10.10;99.90;;;;;;4992481;28;20073;-74
2022/04/22 00:21:24;;;;;;;0.10;0.10;;;10.10;99.90;;;;;;4997267;28;20429;-75
2022/04/22 00:23:50;;;;;;;0.10;0.10;;;10.10;99.90;;;;;;4996629;28;20038;-74
2022/04/22 00:26:17;;;;;;;0.75;0.75;;;10.10;99.90;;;;;;4987185;28;20519;-75
2022/04/22 00:28:42;;;;;;;0.10;0.10;;;10.00;99.90;;;;;;4985653;28;20355;-73
2022/04/22 00:31:08;;;;;;;0.10;0.10;;;10.00;99.90;;;;;;4986292;28;20025;-74
2022/04/22 00:33:34;;;;;;;0.10;0.10;;;10.00;99.90;;;;;;4978493;28;20034;-74
2022/04/22 00:36:00;;;;;;;0.10;0.10;;;10.00;99.90;;;;;;4974763;28;20039;-75
2022/04/22 00:38:26;;;;;;;0.10;0.10;;;10.00;99.90;;;;;;4979761;28;20057;-74
2022/04/22 00:40:56;;;;;;;0.10;0.10;;;10.00;99.90;;;;;;4987658;28;20457;-75
2022/04/22 00:43:23;;;;;;;0.10;0.10;;;10.00;99.90;;;;;;4984979;28;20305;-75
2022/04/22 00:45:51;;;;;;;0.28;0.28;;;9.90;99.90;;;;;;4984800;28;20030;-74
2022/04/22 00:48:17;;;;;;;0.10;0.10;;;9.90;99.90;;;;;;4979502;28;20034;-74
2022/04/22 00:50:44;;;;;;;0.10;0.10;;;9.80;99.90;;;;;;4977335;28;20567;-75
2022/04/22 00:53:10;;;;;;;0.10;0.10;;;9.80;99.90;;;;;;4984354;28;20026;-75
2022/04/22 00:55:38;;;;;;;0.10;0.10;;;9.80;99.90;;;;;;4983723;28;20022;-74
2022/04/22 00:58:04;;;;;;;0.10;0.10;;;9.90;99.90;;;;;;4987974;28;20601;-74
2022/04/22 01:00:30;;;;;;;0.20;0.20;;;9.80;99.90;;;;;;4982814;28;20077;-75
2022/04/22 01:02:56;;;;;;;0.10;0.10;;;9.70;99.90;;;;;;4982916;28;20022;-73
2022/04/22 01:11:03;;;;;;;0.10;0.10;;;9.70;99.90;;;;;;4980664;28;20039;-75
2022/04/22 01:13:29;;;;;;;0.10;0.10;;;9.60;99.90;;;;;;4985036;28;20486;-75
2022/04/22 01:15:56;;;;;;;0.10;0.10;;;9.60;99.90;;;;;;4985408;28;20045;-74
2022/04/22 01:18:22;;;;;;;0.10;0.10;;;10.10;99.90;;;;;;4984858;28;20086;-75
2022/04/22 01:20:47;;;;;;;0.10;0.10;;;9.60;99.90;;;;;;4981803;28;20026;-73
2022/04/22 01:23:13;;;;;;;0.13;0.13;;;9.60;99.90;;;;;;4983202;28;20030;-74
2022/04/22 01:25:39;;;;;;;0.10;0.10;;;9.60;99.90;;;;;;4988263;28;20038;-75
2022/04/22 01:28:05;;;;;;;0.10;0.10;;;9.60;99.90;;;;;;4984346;28;20832;-74
2022/04/22 01:30:31;;;;;;;0.10;0.10;;;9.50;99.90;;;;;;4988230;28;20026;-79
2022/04/22 01:32:57;;;;;;;0.10;0.10;;;9.50;99.90;;;;;;4989307;28;20453;-79
2022/04/22 01:35:26;;;;;;;0.10;0.10;;;9.50;99.90;;;;;;4994145;28;20030;-78
2022/04/22 01:37:51;;;;;;;0.10;0.10;;;9.40;99.90;;;;;;4999254;28;20167;-78
2022/04/22 01:40:17;;;;;;;0.10;0.10;;;9.40;99.90;;;;;;4993003;28;20045;-78
2022/04/22 01:42:44;;;;;;;0.10;0.10;;;9.30;99.90;;;;;;4996793;28;20038;-79
2022/04/22 01:45:12;;;;;;;0.10;0.10;;;9.30;99.90;;;;;;4989824;28;20066;-77
2022/04/22 01:47:38;;;;;;;0.10;0.10;;;9.30;99.90;;;;;;4976358;28;20548;-78
2022/04/22 01:50:04;;;;;;;0.10;0.10;;;9.20;99.90;;;;;;4988492;28;20038;-78
2022/04/22 01:52:30;;;;;;;0.10;0.10;;;9.20;99.90;;;;;;4990925;28;20026;-78
2022/04/22 01:54:56;;;;;;;0.20;0.20;;;9.20;99.90;;;;;;4992585;28;20042;-80
2022/04/22 01:57:22;;;;;;;0.10;0.10;;;9.20;99.90;;;;;;4989371;28;20592;-77
2022/04/22 01:59:49;;;;;;;0.10;0.10;;;9.30;99.90;;;;;;4989008;28;20026;-76
2022/04/22 02:02:16;;;;;;;0.10;0.10;;;9.20;99.90;;;;;;4991817;28;20018;-77
2022/04/22 02:04:42;;;;;;;0.10;0.10;;;9.20;99.90;;;;;;4984601;28;20034;-77
2022/04/22 02:07:08;;;;;;;0.10;0.10;;;9.10;99.90;;;;;;4989768;28;20034;-77
2022/04/22 02:09:34;;;;;;;0.75;0.75;;;9.10;99.90;;;;;;4987217;28;20027;-77
2022/04/22 02:12:00;;;;;;;0.10;0.10;;;9.00;99.90;;;;;;4983968;28;20118;-77
2022/04/22 02:14:26;;;;;;;5.07;1.05;;;9.00;99.90;;;;;;4985141;28;20506;-76
2022/04/22 02:16:52;;;;;;;0.10;0.10;;;9.00;99.90;;;;;;4984446;28;20524;-76
2022/04/22 02:19:18;;;;;;;0.10;0.10;;;8.90;99.90;;;;;;4988795;28;20031;-76
2022/04/22 02:21:44;;;;;;;0.10;0.10;;;8.90;99.90;;;;;;4985468;28;20037;-76
2022/04/22 02:24:11;;;;;;;3.58;3.38;;;8.90;99.90;;;;;;4986237;28;20027;-76
2022/04/22 02:29:22;;;;;;;0.10;0.10;;;8.90;99.90;;;;;;4987890;28;20036;-76
2022/04/22 02:31:52;;;;;;;0.10;0.10;;;8.80;99.90;;;;;;4987021;28;20041;-75
2022/04/22 02:34:19;;;;;;;0.10;0.10;;;8.70;99.90;;;;;;4985644;28;20022;-74
2022/04/22 02:36:45;;;;;;;0.40;0.40;;;8.80;99.90;;;;;;4985478;28;20548;-76
2022/04/22 02:39:11;;;;;;;0.10;0.10;;;8.70;99.90;;;;;;4986963;28;20026;-75
2022/04/22 02:47:06;;;;;;;0.35;0.35;;;8.70;99.90;;;;;;4991398;28;20085;-76
2022/04/22 02:49:31;;;;;;;0.10;0.10;;;8.60;99.90;;;;;;4989832;28;20026;-76
2022/04/22 02:51:57;;;;;;;0.10;0.10;;;8.60;99.90;;;;;;4985001;28;20114;-77
2022/04/22 02:54:23;;;;;;;0.10;0.10;;;8.60;99.90;;;;;;4987973;28;20054;-76
2022/04/22 02:56:52;;;;;;;6.13;2.70;;;8.60;99.90;;;;;;4978839;28;20048;-77
2022/04/22 02:59:19;;;;;;;0.10;0.10;;;8.70;99.90;;;;;;4985558;28;20026;-77
2022/04/22 03:01:45;;;;;;;0.10;0.10;;;8.70;99.90;;;;;;4987552;28;20564;-76
2022/04/22 03:04:12;;;;;;;0.10;0.10;;;8.70;99.90;;;;;;4982689;28;20030;-75
2022/04/22 03:06:38;;;;;;;0.95;0.95;;;8.60;99.90;;;;;;4985317;28;20135;-78
2022/04/22 03:09:04;;;;;;;0.17;0.17;;;8.60;99.90;;;;;;5001598;28;20042;-78
2022/04/22 03:11:30;;;;;;;0.20;0.20;;;8.60;99.90;;;;;;4983346;28;20032;-77
2022/04/22 03:13:56;;;;;;;1.45;1.35;;;8.60;99.90;;;;;;4980772;28;20486;-77
2022/04/22 03:16:26;;;;;;;0.28;0.28;;;8.60;99.90;;;;;;4988646;28;20025;-76
2022/04/22 03:18:52;;;;;;;0.10;0.10;;;8.60;99.90;;;;;;4995929;28;20027;-76
2022/04/22 03:21:18;;;;;;;0.10;0.10;;;8.50;99.90;;;;;;4988067;28;20601;-77
2022/04/22 03:23:43;;;;;;;0.10;0.10;;;8.50;99.90;;;;;;4984758;28;20516;-77
2022/04/22 03:26:09;;;;;;;0.10;0.10;;;8.50;99.90;;;;;;4984867;28;20026;-76
2022/04/22 03:28:34;;;;;;;0.10;0.10;;;8.40;99.90;;;;;;4976723;28;20030;-76
2022/04/22 03:31:00;;;;;;;0.10;0.10;;;8.40;99.90;;;;;;4988291;28;20126;-77
2022/04/22 03:33:26;;;;;;;0.20;0.20;;;8.40;99.90;;;;;;4987803;28;20018;-76
2022/04/22 03:35:51;;;;;;;0.10;0.10;;;8.40;99.90;;;;;;4979652;28;20481;-75
2022/04/22 03:38:22;;;;;;;0.10;0.10;;;8.40;99.90;;;;;;4982263;28;20098;-75
2022/04/22 03:40:49;;;;;;;0.20;0.20;;;8.40;99.90;;;;;;4981719;28;20035;-76
2022/04/22 03:43:16;;;;;;;0.10;0.10;;;8.40;99.90;;;;;;4987284;28;20287;-76
2022/04/22 03:45:42;;;;;;;0.85;0.85;;;8.40;99.90;;;;;;4983829;28;20026;-75
2022/04/22 03:48:09;;;;;;;0.10;0.10;;;8.30;99.90;;;;;;4987829;28;20109;-76
2022/04/22 03:50:36;;;;;;;0.10;0.10;;;8.30;99.90;;;;;;4982727;28;20049;-76
2022/04/22 03:53:03;;;;;;;0.10;0.10;;;8.20;99.90;;;;;;4984685;28;20027;-75
2022/04/22 03:55:28;;;;;;;0.20;0.20;;;8.20;99.90;;;;;;4988017;28;20096;-75
2022/04/22 03:58:13;;;;;;;0.10;0.10;;;8.20;99.90;;;;;;4985306;28;20030;-76
2022/04/22 04:00:46;;;;;;;0.10;0.10;;;8.30;99.90;;;;;;4979855;28;20101;-78
2022/04/22 04:03:13;;;;;;;0.52;0.52;;;8.10;99.90;;;;;;4986892;28;20026;-76
2022/04/22 04:05:41;;;;;;;0.45;0.45;;;8.00;99.90;;;;;;4988968;28;20027;-75
2022/04/22 04:08:10;;;;;;;1.15;1.13;;;8.10;99.90;;;;;;4983834;28;20069;-75
2022/04/22 04:16:05;;;;;;;0.10;0.10;;;8.10;99.90;;;;;;4978050;28;20397;-75
2022/04/22 04:18:39;;;;;;;0.63;0.63;;;8.10;99.90;;;;;;4985252;28;20035;-74
2022/04/22 04:23:52;;;;;;;1.33;1.23;;;8.10;99.90;;;;;;5003771;28;20085;-74
2022/04/22 04:26:19;;;;;;;0.10;0.10;;;8.00;99.90;;;;;;5001342;28;20037;-75
2022/04/22 04:28:47;;;;;;;0.30;0.30;;;8.00;99.90;;;;;;4996936;28;20043;-73
2022/04/22 04:31:13;;;;;;;0.10;0.10;;;8.00;99.90;;;;;;4995339;28;20100;-76
2022/04/22 04:33:40;;;;;;;0.10;0.10;;;8.10;99.90;;;;;;4987828;28;20122;-76
2022/04/22 04:36:09;;;;;;;0.10;0.10;;;8.10;99.90;;;;;;4986345;28;20548;-76
2022/04/22 04:38:36;;;;;;;0.10;0.10;;;8.10;99.90;;;;;;4988288;28;20038;-75
2022/04/22 04:41:03;;;;;;;0.10;0.10;;;8.10;99.90;;;;;;4994925;28;20113;-77
2022/04/22 04:43:29;;;;;;;0.20;0.20;;;8.10;99.90;;;;;;4990838;28;20034;-76
2022/04/22 04:45:55;;;;;;;0.30;0.30;;;8.00;99.90;;;;;;4988466;28;20034;-76
2022/04/22 04:48:21;;;;;;;0.10;0.10;;;8.00;99.90;;;;;;4994688;28;20045;-74
2022/04/22 04:50:47;;;;;;;0.10;0.10;;;7.90;99.90;;;;;;4992390;28;20065;-76
2022/04/22 04:53:13;;;;;;;0.10;0.10;;;7.90;99.90;;;;;;4989136;28;20026;-77
2022/04/22 04:55:40;;;;;;;0.35;0.35;;;8.00;99.90;;;;;;4984180;28;20046;-76
2022/04/22 04:58:06;;;;;;;0.10;0.10;;;8.00;99.90;;;;;;4988285;28;20057;-75
2022/04/22 05:00:32;;;;;;;0.10;0.10;;;8.10;99.90;;;;;;4983575;28;20032;-76
2022/04/22 05:02:59;;;;;;;0.10;0.10;;;8.00;99.90;;;;;;4981028;28;20030;-76
2022/04/22 05:05:25;;;;;;;0.65;0.65;;;8.10;99.90;;;;;;4994177;28;20030;-77
2022/04/22 05:07:59;;;;;;;0.10;0.10;;;8.10;99.90;;;;;;4998406;23;20077;-67
2022/04/22 05:10:27;;;;;;;0.10;0.10;;;8.10;99.90;;;;;;4969784;28;20031;-67
2022/04/22 05:12:53;;;;;;;1.05;1.05;;;8.20;99.90;;;;;;4962063;28;20066;-67
2022/04/22 05:15:22;;;;;;;0.45;0.45;;;8.10;99.90;;;;;;4958579;28;20031;-67
2022/04/22 05:17:49;;;;;;;0.10;0.10;;;8.10;99.90;;;;;;4968839;28;20085;-67
2022/04/22 05:20:16;;;;;;;1.05;1.05;;;8.10;99.90;;;;;;4961446;28;20046;-68
2022/04/22 05:22:43;;;;;;;0.10;0.10;;;8.10;99.90;;;;;;4967879;28;20089;-67
2022/04/22 05:25:12;;;;;;;0.55;0.55;;;8.10;99.90;;;;;;4965100;28;20411;-68
2022/04/22 05:27:38;;;;;;;0.20;0.20;;;8.20;99.90;;;;;;4964986;28;20034;-67
2022/04/22 05:32:50;;;;;;;0.30;0.30;;;8.20;99.90;;;;;;4967148;28;20029;-68
2022/04/22 05:35:18;;;;;;;0.10;0.10;;;8.20;99.90;;;;;;4964133;28;20014;-68
2022/04/22 05:38:10;;;;;;;0.10;0.10;;;8.20;99.90;;;;;;4967400;28;20038;-68
2022/04/22 05:40:37;;;;;;;0.10;0.10;;;8.20;99.90;;;;;;4961942;28;20057;-67
2022/04/22 05:43:08;;;;;;;0.10;0.10;;;8.20;99.90;;;;;;4966258;28;20073;-68
2022/04/22 05:45:35;;;;;;;0.10;0.10;;;8.30;99.90;;;;;;4968240;28;20035;-68
2022/04/22 05:48:00;;;;;;;0.10;0.10;;;8.30;99.90;;;;;;4965432;28;20031;-68
2022/04/22 05:50:27;;;;;;;0.10;0.10;;;8.40;99.90;;;;;;4966131;28;20398;-68
2022/04/22 05:52:53;;;;;;;0.47;0.47;;;8.50;99.90;;;;;;4965493;28;20034;-67
2022/04/22 05:55:24;;;;;;;0.20;0.20;;;8.50;99.90;;;;;;4956419;28;20023;-69
2022/04/22 05:57:52;;;;;;;0.40;0.40;;;8.50;99.90;;;;;;4964664;28;20097;-69
2022/04/22 06:00:20;;;;;;;0.32;0.32;;;8.60;99.90;;;;;;4972875;28;20027;-68
2022/04/22 06:02:46;;;;;;;0.10;0.10;;;8.70;99.90;;;;;;4968914;28;20035;-68
2022/04/22 06:05:14;;;;;;;0.10;0.10;;;8.80;99.90;;;;;;4962595;28;20039;-68
2022/04/22 06:07:41;;;;;;;0.10;0.10;;;8.80;99.90;;;;;;4959466;28;20081;-67
2022/04/22 06:12:54;;;;;;;0.10;0.10;;;8.90;99.90;;;;;;4962418;28;20151;-68
2022/04/22 06:15:20;;;;;;;0.10;0.10;;;8.80;99.90;;;;;;4965963;28;20125;-67
2022/04/22 06:17:46;;;;;;;1.00;1.00;;;8.80;99.90;;;;;;4967761;28;20027;-69
2022/04/22 06:20:12;;;;;;;0.47;0.47;;;8.80;99.90;;;;;;4959589;28;20030;-68
2022/04/22 06:22:38;;;;;;;0.38;0.38;;;8.80;99.90;;;;;;4956163;28;20035;-69
2022/04/22 06:25:05;;;;;;;0.20;0.20;;;8.90;99.90;;;;;;4972133;28;20051;-68
2022/04/22 06:27:37;;;;;;;0.10;0.10;;;8.90;99.90;;;;;;4969785;28;20031;-67
2022/04/22 06:30:13;;;;;;;0.10;0.10;;;8.90;99.90;;;;;;4961626;28;20026;-69
2022/04/22 06:32:40;;;;;;;2.05;1.85;;;8.60;99.90;;;;;;4960527;28;20018;-66
2022/04/22 06:35:07;;;;;;;0.20;0.20;;;9.10;99.90;;;;;;4959443;28;20401;-67
2022/04/22 06:37:43;;;;;;;1.55;1.45;;;9.20;99.90;;;;;;4970053;28;20513;-67
2022/04/22 06:45:47;;;;;;;0.22;0.22;;;9.20;99.90;;;;;;4960379;28;20043;-71
2022/04/22 06:48:14;;;;;;;0.20;0.20;;;9.30;99.90;;;;;;4966020;28;20061;-68
2022/04/22 06:50:44;;;;;;;0.10;0.10;;;9.30;99.90;;;;;;4969327;28;20322;-67
2022/04/22 06:53:11;;;;;;;0.10;0.10;;;9.40;99.90;;;;;;4961362;28;20101;-67
2022/04/22 06:55:38;;;;;;;0.10;0.10;;;9.50;99.90;;;;;;4966804;28;20023;-67
2022/04/22 06:58:10;;;;;;;0.85;0.85;;;9.60;99.90;;;;;;4973012;28;20062;-67
2022/04/22 07:00:36;;;;;;;0.10;0.10;;;9.50;99.90;;;;;;4961609;28;20122;-66
2022/04/22 07:03:02;;;;;;;0.20;0.20;;;9.60;99.90;;;;;;4959240;28;20038;-68
2022/04/22 07:05:28;;;;;;;0.10;0.10;;;9.70;99.90;;;;;;4967213;28;20489;-66
2022/04/22 07:07:53;;;;;;;0.30;0.30;;;9.70;99.90;;;;;;4963759;28;20027;-69
2022/04/22 07:10:20;;;;;;;0.10;0.10;;;9.70;99.90;;;;;;4962777;28;20394;-68
2022/04/22 07:12:46;;;;;;;1.17;0.90;;;9.80;99.90;;;;;;4962067;28;20513;-68
2022/04/22 07:15:11;;;;;;;0.10;0.10;;;9.90;99.90;;;;;;4965374;28;20034;-70
2022/04/22 07:17:40;;;;;;;0.10;0.10;;;10.00;99.90;;;;;;4960108;28;20037;-69
2022/04/22 07:20:12;;;;;;;0.10;0.10;;;10.20;99.90;;;;;;4968698;28;20026;-67
2022/04/22 07:22:39;;;;;;;0.10;0.10;;;10.20;99.90;;;;;;4964794;28;20026;-66
2022/04/22 07:25:06;;;;;;;0.30;0.30;;;10.30;99.90;;;;;;4964951;28;20046;-67
2022/04/22 07:27:34;;;;;;;0.52;0.52;;;10.20;99.90;;;;;;4961527;28;20637;-68
2022/04/22 07:30:00;;;;;;;0.10;0.10;;;10.20;99.90;;;;;;4970337;28;20066;-69
2022/04/22 07:32:27;;;;;;;0.10;0.10;;;10.20;99.90;;;;;;4968744;28;20534;-67
2022/04/22 07:34:54;;;;;;;0.10;0.10;;;10.40;99.90;;;;;;4969244;28;20030;-67
2022/04/22 07:37:20;;;;;;;0.10;0.10;;;10.40;99.90;;;;;;4963371;28;20029;-67
2022/04/22 07:39:46;;;;;;;0.10;0.10;;;10.50;99.90;;;;;;4967282;28;20264;-69
2022/04/22 07:42:15;;;;;;;0.25;0.25;;;10.60;99.90;;;;;;4961713;28;20039;-66
2022/04/22 07:47:29;;;;;;;0.10;0.10;;;10.80;99.90;;;;;;4964862;28;20054;-67
2022/04/22 07:49:55;;;;;;;0.20;0.20;;;10.80;99.90;;;;;;4957383;28;20506;-67
2022/04/22 07:52:20;;;;;;;2.10;1.95;;;10.70;99.90;;;;;;4969337;28;20752;-68
2022/04/22 07:54:46;;;;;;;0.10;0.10;;;10.80;99.90;;;;;;4967623;28;20482;-67
2022/04/22 07:57:12;;;;;;;0.10;0.10;;;11.00;99.90;;;;;;4965027;28;20461;-67
2022/04/22 07:59:38;;;;;;;0.10;0.10;;;11.10;99.90;;;;;;4963245;28;20111;-68
2022/04/22 08:02:04;;;;;;;0.10;0.10;;;11.20;99.90;;;;;;4957496;28;20490;-67
2022/04/22 08:04:30;;;;;;;0.10;0.10;;;11.20;99.90;;;;;;4963125;28;20077;-68
2022/04/22 08:06:56;;;;;;;0.10;0.10;;;11.30;99.90;;;;;;4966324;28;20031;-66
2022/04/22 08:09:22;;;;;;;0.10;0.10;;;11.40;99.90;;;;;;4959355;28;20023;-68
2022/04/22 08:11:48;;;;;;;0.10;0.10;;;11.50;99.90;;;;;;4958750;28;20039;-68
2022/04/22 08:14:13;;;;;;;0.10;0.10;;;11.40;99.90;;;;;;4968958;28;20475;-66
2022/04/22 08:16:39;;;;;;;0.10;0.10;;;11.50;99.90;;;;;;4965826;28;20035;-67
2022/04/22 08:19:05;;;;;;;0.10;0.10;;;11.50;99.90;;;;;;4967846;28;20073;-67
2022/04/22 08:21:34;;;;;;;0.10;0.10;;;11.70;99.90;;;;;;4969653;28;20027;-71
2022/04/22 08:24:01;;;;;;;0.10;0.10;;;11.90;99.90;;;;;;4966024;28;20097;-69
2022/04/22 08:26:28;;;;;;;0.10;0.10;;;12.00;99.90;;;;;;4965121;28;20101;-66
2022/04/22 08:28:54;;;;;;;0.28;0.28;;;12.00;99.90;;;;;;4966559;28;20019;-66
2022/04/22 08:31:20;;;;;;;0.10;0.10;;;11.80;99.90;;;;;;4966876;28;20077;-68
2022/04/22 08:33:47;;;;;;;0.10;0.10;;;11.90;99.90;;;;;;4963422;28;20498;-69
2022/04/22 08:36:13;;;;;;;0.10;0.10;;;11.90;99.90;;;;;;4966385;28;20031;-67
2022/04/22 08:38:38;;;;;;;0.10;0.10;;;12.10;99.90;;;;;;4961584;28;20045;-66
2022/04/22 08:41:07;;;;;;;0.10;0.10;;;12.30;99.90;;;;;;4967941;28;20030;-66
2022/04/22 08:43:34;;;;;;;0.10;0.10;;;12.40;99.90;;;;;;4967290;28;20418;-68
2022/04/22 08:46:00;;;;;;;0.10;0.10;;;12.40;99.90;;;;;;4977269;28;20081;-66
2022/04/22 08:51:11;;;;;;;0.40;0.40;;;12.50;99.90;;;;;;4977119;28;20042;-65
2022/04/22 08:53:39;;;;;;;0.10;0.10;;;12.70;99.90;;;;;;4973947;28;20588;-67
2022/04/22 08:56:07;;;;;;;0.10;0.10;;;12.80;99.90;;;;;;4976838;28;20031;-65
2022/04/22 08:58:36;;;;;;;0.10;0.10;;;12.80;99.90;;;;;;4972851;28;20027;-66
2022/04/22 09:01:02;;;;;;;0.10;0.10;;;12.80;99.90;;;;;;4970718;28;20461;-64
2022/04/22 09:03:28;;;;;;;0.52;0.52;;;12.90;99.90;;;;;;4974523;28;20034;-66
2022/04/22 09:05:59;;;;;;;0.30;0.30;;;13.00;99.90;;;;;;4978256;28;20042;-64
2022/04/22 09:08:26;;;;;;;0.10;0.10;;;13.00;99.90;;;;;;4967890;28;20089;-68
2022/04/22 09:10:56;;;;;;;0.20;0.20;;;12.90;99.90;;;;;;4965909;28;20029;-68
2022/04/22 09:13:32;;;;;;;0.10;0.10;;;13.10;99.90;;;;;;4968457;28;20027;-67
2022/04/22 09:15:59;;;;;;;0.38;0.38;;;13.20;99.90;;;;;;4964281;28;20123;-67
2022/04/22 09:18:26;;;;;;;0.38;0.38;;;13.30;99.90;;;;;;4969739;28;20037;-68
2022/04/22 09:20:54;;;;;;;0.10;0.10;;;13.30;99.90;;;;;;4972724;28;20483;-67
2022/04/22 09:23:23;;;;;;;0.25;0.25;;;13.30;99.90;;;;;;4975860;28;20019;-66
2022/04/22 09:25:49;;;;;;;0.10;0.10;;;13.50;99.90;;;;;;4976191;28;20494;-67
2022/04/22 09:28:15;;;;;;;0.10;0.10;;;13.60;99.90;;;;;;4973725;28;20041;-68
2022/04/22 09:30:41;;;;;;;0.10;0.10;;;13.60;99.90;;;;;;4979413;28;20037;-66
2022/04/22 09:33:12;;;;;;;0.10;0.10;;;13.70;99.90;;;;;;4976188;28;20027;-67
2022/04/22 09:42:39;;;;;;;0.40;0.40;;;13.50;99.90;;;;;;4976273;28;20031;-66
2022/04/22 09:43:51;;;;;;;0.10;0.10;;;13.90;99.90;;;;;;4973235;28;20085;-68
2022/04/22 09:46:30;;;;;;;0.17;0.17;;;14.00;99.90;;;;;;4961791;28;20039;-67
2022/04/22 09:48:57;;;;;;;0.10;0.10;;;14.20;99.90;;;;;;4973770;28;20034;-65
2022/04/22 09:51:30;;;;;;;0.00;0.00;;;14.30;99.90;;;;;;4977923;28;20501;-67
2022/04/22 09:54:03;;;;;;;0.10;0.10;;;14.30;99.90;;;;;;4974210;28;20065;-68
2022/04/22 09:56:31;;;;;;;0.10;0.10;;;14.40;99.90;;;;;;4976252;28;20271;-66
2022/04/22 09:58:57;;;;;;;0.10;0.10;;;14.40;99.90;;;;;;4973551;28;20035;-65
2022/04/22 10:01:24;;;;;;;0.30;0.30;;;14.60;99.90;;;;;;4978742;28;20038;-66
2022/04/22 10:03:51;;;;;;;0.10;0.10;;;14.70;99.90;;;;;;4972107;28;20122;-67
2022/04/22 10:06:18;;;;;;;1.35;0.38;;;14.80;99.90;;;;;;4969243;28;20069;-68
2022/04/22 10:08:46;;;;;;;0.10;0.10;;;14.90;99.90;;;;;;4975088;28;20042;-67
2022/04/22 10:11:14;;;;;;;0.10;0.10;;;15.10;99.90;;;;;;4969334;28;20029;-68
2022/04/22 10:13:48;;;;;;;0.35;0.35;;;15.10;99.90;;;;;;4969046;28;20058;-68
2022/04/22 10:16:14;;;;;;;0.10;0.10;;;15.00;99.90;;;;;;4973498;28;20073;-67
2022/04/22 10:18:42;;;;;;;0.10;0.10;;;15.10;99.90;;;;;;4975193;28;20037;-66
2022/04/22 10:21:08;;;;;;;0.10;0.10;;;15.20;99.90;;;;;;4970135;28;20022;-66
2022/04/22 10:23:35;;;;;;;0.10;0.10;;;15.60;99.90;;;;;;4967311;28;20129;-68
2022/04/22 10:26:02;;;;;;;0.10;0.10;;;15.80;99.90;;;;;;4966675;28;20105;-60
